createdAt,value
2018-12-13T00:00:27.067Z,7.30
2018-12-13T00:02:55.482Z,6.93
2018-12-13T00:05:23.995Z,6.67
2018-12-13T00:07:52.404Z,6.80
2018-12-13T00:10:20.797Z,7.00
2018-12-13T00:12:49.208Z,6.77
2018-12-13T00:15:21.744Z,7.00
2018-12-13T00:17:50.283Z,7.57
2018-12-13T00:20:18.659Z,7.40
2018-12-13T00:22:47.087Z,7.20
2018-12-13T00:25:15.460Z,7.60
2018-12-13T00:27:43.875Z,8.00
2018-12-13T00:30:12.263Z,7.67
2018-12-13T00:32:40.667Z,7.73
2018-12-13T00:35:09.071Z,7.93
2018-12-13T00:37:37.724Z,7.17
2018-12-13T00:40:06.796Z,7.97
2018-12-13T00:42:35.170Z,7.33
2018-12-13T00:45:05.575Z,7.17
2018-12-13T00:47:33.961Z,7.47
2018-12-13T00:50:04.818Z,7.97
2018-12-13T00:52:33.239Z,7.57
2018-12-13T00:55:03.635Z,7.53
2018-12-13T00:57:32.021Z,8.10
2018-12-13T01:00:00.451Z,8.20
2018-12-13T01:02:28.833Z,7.17
2018-12-13T01:04:57.253Z,7.77
2018-12-13T01:07:25.752Z,8.10
2018-12-13T01:09:54.149Z,8.27
2018-12-13T01:12:22.561Z,7.50
2018-12-13T01:14:50.948Z,8.23
2018-12-13T01:17:19.340Z,8.37
2018-12-13T01:19:48.057Z,8.13
2018-12-13T01:22:16.568Z,8.20
2018-12-13T01:24:45.083Z,8.57
2018-12-13T01:27:13.492Z,8.37
2018-12-13T01:29:41.878Z,8.63
2018-12-13T01:32:10.299Z,9.03
2018-12-13T01:34:38.691Z,9.13
2018-12-13T01:37:07.429Z,8.80
2018-12-13T01:39:35.836Z,8.17
2018-12-13T01:42:07.003Z,8.20
2018-12-13T01:44:35.419Z,7.87
2018-12-13T01:47:05.566Z,8.43
2018-12-13T01:49:34.007Z,6.50
2018-12-13T01:52:05.307Z,5.63
2018-12-13T01:54:33.720Z,5.20
2018-12-13T01:57:05.331Z,5.00
2018-12-13T01:59:33.752Z,5.20
2018-12-13T02:02:04.661Z,4.27
2018-12-13T02:04:33.078Z,4.23
2018-12-13T02:07:03.421Z,4.80
2018-12-13T02:09:31.832Z,4.30
2018-12-13T02:12:00.345Z,3.93
2018-12-13T02:14:29.167Z,3.50
2018-12-13T02:16:57.648Z,4.10
2018-12-13T02:19:26.044Z,4.43
2018-12-13T02:21:54.473Z,4.40
2018-12-13T02:24:22.893Z,4.20
2018-12-13T02:26:51.284Z,3.60
2018-12-13T02:29:19.697Z,4.10
2018-12-13T02:31:48.746Z,4.10
2018-12-13T02:34:17.180Z,4.50
2018-12-13T02:36:45.573Z,4.53
2018-12-13T02:39:13.994Z,4.60
2018-12-13T02:41:42.382Z,4.70
2018-12-13T02:44:10.821Z,4.43
2018-12-13T02:46:39.213Z,4.20
2018-12-13T02:49:09.099Z,4.63
2018-12-13T02:51:37.482Z,4.30
2018-12-13T02:54:06.025Z,5.07
2018-12-13T02:56:34.434Z,4.33
2018-12-13T02:59:05.342Z,4.70
2018-12-13T03:01:33.725Z,4.70
2018-12-13T03:04:04.653Z,4.97
2018-12-13T03:06:33.073Z,5.07
2018-12-13T03:09:03.562Z,5.07
2018-12-13T03:11:31.988Z,5.57
2018-12-13T03:14:00.395Z,5.03
2018-12-13T03:16:28.768Z,5.57
2018-12-13T03:18:57.192Z,5.30
2018-12-13T03:21:25.585Z,5.40
2018-12-13T03:23:54.003Z,6.20
2018-12-13T03:26:22.393Z,6.50
2018-12-13T03:28:50.819Z,6.00
2018-12-13T03:31:19.250Z,6.50
2018-12-13T03:33:47.755Z,6.50
2018-12-13T03:36:16.258Z,6.93
2018-12-13T03:38:45.333Z,6.43
2018-12-13T03:41:13.716Z,6.70
2018-12-13T03:43:42.132Z,7.03
2018-12-13T03:46:10.517Z,7.67
2018-12-13T03:48:38.935Z,6.57
2018-12-13T03:51:07.356Z,6.70
2018-12-13T03:53:35.774Z,7.40
2018-12-13T03:56:05.216Z,6.77
2018-12-13T03:58:33.966Z,6.80
2018-12-13T04:01:05.360Z,7.23
2018-12-13T04:03:33.768Z,7.70
2018-12-13T04:06:04.456Z,7.23
2018-12-13T04:08:32.869Z,6.97
2018-12-13T04:11:04.336Z,8.07
2018-12-13T04:13:32.782Z,7.80
2018-12-13T04:16:03.451Z,7.67
2018-12-13T04:18:31.860Z,7.10
2018-12-13T04:21:00.234Z,7.90
2018-12-13T04:23:28.658Z,7.27
2018-12-13T04:25:57.032Z,7.13
2018-12-13T04:28:25.454Z,8.50
2018-12-13T04:30:53.851Z,6.90
2018-12-13T04:33:22.273Z,8.13
2018-12-13T04:35:50.796Z,7.43
2018-12-13T04:38:19.238Z,7.50
2018-12-13T04:40:47.636Z,8.37
2018-12-13T04:43:16.053Z,7.53
2018-12-13T04:45:44.447Z,8.13
2018-12-13T04:48:12.961Z,7.97
2018-12-13T04:50:42.152Z,7.90
2018-12-13T04:53:10.584Z,8.13
2018-12-13T04:55:39.020Z,7.90
2018-12-13T04:58:07.432Z,8.53
2018-12-13T05:00:35.876Z,9.10
2018-12-13T05:03:05.830Z,7.87
2018-12-13T05:05:34.262Z,8.17
2018-12-13T05:08:05.267Z,8.83
2018-12-13T05:10:47.093Z,8.53
2018-12-13T05:13:15.484Z,8.23
2018-12-13T05:15:43.928Z,7.87
2018-12-13T05:18:12.321Z,8.73
2018-12-13T05:20:41.361Z,8.50
2018-12-13T05:23:09.787Z,8.50
2018-12-13T05:25:38.209Z,7.87
2018-12-13T05:28:06.881Z,8.37
2018-12-13T05:30:35.326Z,8.90
2018-12-13T05:33:05.037Z,9.77
2018-12-13T05:35:33.464Z,9.90
2018-12-13T05:38:04.318Z,11.07
2018-12-13T05:40:32.749Z,10.73
2018-12-13T05:43:03.436Z,10.63
2018-12-13T05:45:31.900Z,9.40
2018-12-13T05:48:00.305Z,9.97
2018-12-13T05:50:28.761Z,10.27
2018-12-13T05:52:57.184Z,10.13
2018-12-13T05:55:25.633Z,10.17
2018-12-13T05:57:54.025Z,10.97
2018-12-13T06:00:22.456Z,10.97
2018-12-13T06:02:50.858Z,11.13
2018-12-13T06:05:19.313Z,10.30
2018-12-13T06:07:47.708Z,10.37
2018-12-13T06:10:16.141Z,10.80
2018-12-13T06:12:44.526Z,9.70
2018-12-13T06:15:13.096Z,10.67
2018-12-13T06:17:42.061Z,10.83
2018-12-13T06:20:10.586Z,10.97
2018-12-13T06:22:39.012Z,11.27
2018-12-13T06:25:07.577Z,10.83
2018-12-13T06:27:36.008Z,11.80
2018-12-13T06:30:07.600Z,11.83
2018-12-13T06:32:36.372Z,10.70
2018-12-13T06:35:05.693Z,11.23
2018-12-13T06:37:34.097Z,11.40
2018-12-13T06:40:05.220Z,11.27
2018-12-13T06:42:33.653Z,10.93
2018-12-13T06:45:04.633Z,11.93
2018-12-13T06:47:33.043Z,11.10
2018-12-13T06:50:06.036Z,11.20
2018-12-13T06:52:34.537Z,11.37
2018-12-13T06:55:05.504Z,11.20
2018-12-13T06:57:34.092Z,12.87
2018-12-13T07:00:05.423Z,11.87
2018-12-13T07:02:33.874Z,12.17
2018-12-13T07:05:05.382Z,12.13
2018-12-13T07:07:33.885Z,11.47
2018-12-13T07:10:06.645Z,12.63
2018-12-13T07:12:35.105Z,13.23
2018-12-13T07:15:06.633Z,12.67
2018-12-13T07:17:35.080Z,12.90
2018-12-13T07:20:05.628Z,12.67
2018-12-13T07:22:34.187Z,12.20
2018-12-13T07:25:05.384Z,13.07
2018-12-13T07:27:33.833Z,11.80
2018-12-13T07:30:04.720Z,11.23
2018-12-13T07:32:33.195Z,12.87
2018-12-13T07:35:03.667Z,11.93
2018-12-13T07:37:32.065Z,11.93
2018-12-13T07:40:00.485Z,11.33
2018-12-13T17:12:05.491Z,12.77
2018-12-13T17:14:33.996Z,12.50
2018-12-13T17:17:02.371Z,13.23
2018-12-13T17:19:30.770Z,13.50
2018-12-13T17:21:59.147Z,13.93
2018-12-13T17:24:27.565Z,12.67
2018-12-13T17:26:55.967Z,14.10
2018-12-13T17:29:24.453Z,14.40
2018-12-13T17:31:52.944Z,12.20
2018-12-13T17:34:22.052Z,12.80
2018-12-13T17:36:50.454Z,13.03
2018-12-13T17:39:18.853Z,14.20
2018-12-13T17:41:47.477Z,14.30
2018-12-13T17:44:15.952Z,13.93
2018-12-13T17:46:44.361Z,13.90
2018-12-13T17:49:12.996Z,13.43
2018-12-13T17:51:41.537Z,13.77
2018-12-13T17:54:11.176Z,14.03
2018-12-13T17:56:39.741Z,13.43
2018-12-13T17:59:08.477Z,13.13
2018-12-13T18:01:36.936Z,12.93
2018-12-13T18:04:05.372Z,13.23
2018-12-13T18:06:33.742Z,14.57
2018-12-13T18:09:02.164Z,14.03
2018-12-13T18:11:30.546Z,13.97
2018-12-13T18:13:58.984Z,14.00
2018-12-13T18:16:27.411Z,13.37
2018-12-13T18:18:56.195Z,12.77
2018-12-13T18:21:24.585Z,13.10
2018-12-13T18:23:53.001Z,13.90
2018-12-13T18:26:21.393Z,12.90
2018-12-13T18:28:49.796Z,12.73
2018-12-13T18:31:18.182Z,13.13
2018-12-13T18:33:46.697Z,13.47
2018-12-13T18:36:15.086Z,13.77
2018-12-13T18:38:43.494Z,14.57
2018-12-13T18:41:11.895Z,13.63
2018-12-13T18:43:40.337Z,14.20
2018-12-13T18:46:08.749Z,13.33
2018-12-13T18:48:37.189Z,13.30
2018-12-13T18:51:05.717Z,15.33
2018-12-13T18:53:34.362Z,14.30
2018-12-13T18:56:02.817Z,14.07
2018-12-13T18:58:31.435Z,13.43
2018-12-13T19:00:59.898Z,13.63
2018-12-13T19:03:28.318Z,13.67
2018-12-13T19:05:56.762Z,13.33
2018-12-13T19:08:26.175Z,13.73
2018-12-13T19:10:54.990Z,13.57
2018-12-13T19:13:23.589Z,12.50
2018-12-13T19:15:52.018Z,12.80
2018-12-13T19:18:20.499Z,12.27
2018-12-13T19:20:48.999Z,14.30
2018-12-13T19:23:17.513Z,13.47
2018-12-13T19:25:45.984Z,13.03
2018-12-13T19:28:14.391Z,13.20
2018-12-13T19:30:42.849Z,14.23
2018-12-13T19:33:11.308Z,14.20
2018-12-13T19:35:39.791Z,13.87
2018-12-13T19:38:08.236Z,14.70
2018-12-13T19:40:36.712Z,13.47
2018-12-13T19:43:05.261Z,13.63
2018-12-13T19:45:34.371Z,13.17
2018-12-13T19:48:02.915Z,14.13
2018-12-13T19:50:31.592Z,14.50
2018-12-13T19:53:00.106Z,14.40
2018-12-13T19:55:28.785Z,13.50
2018-12-13T19:58:03.801Z,14.27
2018-12-13T20:00:32.196Z,13.07
2018-12-13T20:03:00.592Z,14.33
2018-12-13T20:05:28.992Z,14.03
2018-12-13T20:07:59.045Z,14.27
2018-12-13T20:10:27.833Z,13.83
2018-12-13T20:12:56.325Z,14.57
2018-12-13T20:15:24.767Z,14.53
2018-12-13T20:17:53.229Z,14.40
2018-12-13T20:20:22.150Z,14.70
2018-12-13T20:22:50.592Z,14.97
2018-12-13T20:25:18.976Z,15.13
2018-12-13T20:27:47.420Z,13.90
2018-12-13T20:30:16.085Z,15.47
2018-12-13T20:32:44.543Z,13.40
2018-12-13T20:35:13.472Z,15.00
2018-12-13T20:37:41.962Z,15.03
2018-12-13T20:40:10.710Z,13.60
2018-12-13T20:42:39.172Z,13.63
2018-12-13T20:45:08.658Z,14.27
2018-12-13T20:47:37.220Z,13.83
2018-12-13T20:50:06.668Z,13.17
2018-12-13T20:52:35.128Z,13.10
2018-12-13T20:55:03.613Z,12.17
2018-12-13T20:57:32.069Z,12.73
2018-12-13T21:00:00.473Z,12.30
2018-12-13T21:02:28.858Z,13.30
2018-12-13T21:04:57.251Z,13.00
2018-12-13T21:07:30.988Z,12.33
2018-12-13T21:09:59.519Z,12.93
2018-12-13T21:12:27.912Z,13.10
2018-12-13T21:14:56.313Z,14.60
2018-12-13T21:17:24.707Z,13.07
2018-12-13T21:19:53.133Z,12.97
2018-12-13T21:22:21.577Z,12.87
2018-12-13T21:24:50.200Z,13.40
2018-12-13T21:27:18.720Z,13.10
2018-12-13T21:29:47.097Z,12.67
2018-12-13T21:32:15.514Z,12.73
2018-12-13T21:34:44.030Z,13.70
2018-12-13T21:37:12.445Z,13.20
2018-12-13T21:39:40.841Z,11.83
2018-12-13T21:42:09.284Z,13.07
2018-12-13T21:44:37.700Z,13.13
2018-12-13T21:47:06.119Z,12.83
2018-12-13T21:49:34.496Z,13.33
2018-12-13T21:52:02.909Z,14.00
2018-12-13T21:54:31.286Z,13.03
2018-12-13T21:56:59.908Z,12.40
2018-12-13T21:59:28.290Z,12.00
2018-12-13T22:01:56.713Z,12.70
2018-12-13T22:04:25.112Z,15.17
2018-12-13T22:06:53.519Z,13.10
2018-12-13T22:09:21.900Z,13.37
2018-12-13T22:11:50.330Z,11.97
2018-12-13T22:14:18.720Z,13.83
2018-12-13T22:16:47.132Z,12.77
2018-12-13T22:19:15.593Z,13.53
2018-12-13T22:21:44.172Z,14.53
2018-12-13T22:24:12.678Z,13.77
2018-12-13T22:26:41.129Z,13.23
2018-12-13T22:29:09.533Z,13.67
2018-12-13T22:31:37.928Z,14.20
2018-12-13T22:34:06.386Z,14.43
2018-12-13T22:36:35.226Z,15.10
2018-12-13T22:41:41.826Z,14.53
2018-12-13T22:44:10.324Z,14.23
2018-12-13T22:46:38.776Z,13.97
2018-12-13T22:49:07.175Z,14.87
2018-12-13T22:51:35.680Z,15.20
2018-12-13T22:54:04.070Z,14.47
2018-12-13T22:56:32.484Z,13.47
2018-12-13T22:59:00.869Z,14.50
2018-12-13T23:01:29.384Z,14.03
2018-12-13T23:03:57.758Z,13.73
2018-12-13T23:06:26.169Z,15.53
2018-12-13T23:08:54.553Z,15.33
2018-12-13T23:11:22.955Z,15.00
2018-12-13T23:13:51.330Z,14.10
2018-12-13T23:16:19.741Z,14.27
2018-12-13T23:18:48.112Z,15.07
2018-12-13T23:21:16.800Z,15.03
2018-12-13T23:23:45.200Z,14.53
2018-12-13T23:26:13.580Z,14.80
2018-12-13T23:28:41.985Z,14.67
2018-12-13T23:31:10.365Z,15.17
2018-12-13T23:33:38.787Z,14.63
2018-12-13T23:36:07.172Z,14.43
2018-12-13T23:38:35.566Z,15.97
2018-12-13T23:41:04.076Z,15.63
2018-12-13T23:43:32.477Z,14.70
2018-12-13T23:46:00.848Z,15.30
2018-12-13T23:48:29.250Z,14.70
2018-12-13T23:50:57.633Z,15.13
2018-12-13T23:53:26.389Z,13.63
2018-12-13T23:55:55.269Z,14.77
2018-12-13T23:58:24.068Z,13.30
